Mc Dougal, Arkansas
Current Conditions -  °F | °C
As of 5:15 PM on Wednesday 22 Oct 2014 (Local Time) from K4M9 Reporting Station
Clear Clear  
Wind Chill: 64°   Ceiling: Unl
Heat Index: 64°   Visibility: 7mi
Dew Point: 43°   Wind: 8mph
Humidity: 45%   Direction: 70°ENE
Pressure: 30.21"   Gusts: NA
Location:  36.4376°N, 90.3867°W
Report Text: K4M9 222215Z AUTO 07007KT 7SM CLR 18/06 A3021 RMK AO2
Loading
Personal Weather Stations






























Interactive Weather Map
Tropical Storm Tracking
New forecast layout! Learn more

10-Day Weather Forecast

Advertisements
Track Severe Weather on mobile